createdAt,value
2022-12-04T00:01:24.788Z,70.60
2022-12-04T00:04:00.243Z,70.50
2022-12-04T00:06:28.149Z,70.50
2022-12-04T00:08:55.455Z,70.40
2022-12-04T00:11:25.547Z,70.30
2022-12-04T00:13:52.814Z,70.40
2022-12-04T00:16:23.234Z,70.40
2022-12-04T00:18:51.044Z,70.50
2022-12-04T00:21:19.543Z,70.60
2022-12-04T00:23:46.994Z,70.50
2022-12-04T00:26:19.322Z,70.50
2022-12-04T00:28:47.000Z,70.50
2022-12-04T00:31:18.015Z,70.50
2022-12-04T00:33:48.718Z,70.60
2022-12-04T00:36:18.588Z,70.70
2022-12-04T00:38:46.210Z,70.60
2022-12-04T00:41:16.338Z,70.60
2022-12-04T00:43:46.029Z,70.70
2022-12-04T00:46:13.447Z,70.70
2022-12-04T00:48:41.218Z,70.80
2022-12-04T00:51:12.442Z,70.80
2022-12-04T00:53:44.423Z,70.80
2022-12-04T00:56:18.452Z,70.80
2022-12-04T00:58:46.423Z,70.70
2022-12-04T01:01:16.365Z,70.70
2022-12-04T01:03:44.386Z,70.80
2022-12-04T01:06:33.112Z,70.80
2022-12-04T01:09:07.124Z,70.90
2022-12-04T01:11:35.644Z,71.00
2022-12-04T01:14:04.622Z,70.90
2022-12-04T01:16:40.242Z,70.90
2022-12-04T01:19:11.261Z,70.90
2022-12-04T01:21:42.736Z,71.00
2022-12-04T01:24:15.733Z,71.10
2022-12-04T01:26:50.089Z,71.10
2022-12-04T01:29:20.728Z,71.10
2022-12-04T01:31:57.618Z,71.10
2022-12-04T01:34:25.628Z,71.20
2022-12-04T01:36:53.689Z,71.20
2022-12-04T01:39:21.172Z,71.10
2022-12-04T01:41:48.923Z,71.10
2022-12-04T01:44:25.742Z,71.10
2022-12-04T01:46:57.999Z,71.20
2022-12-04T01:49:37.725Z,71.10
2022-12-04T01:52:14.498Z,71.20
2022-12-04T01:54:50.623Z,71.20
2022-12-04T01:57:27.105Z,71.30
2022-12-04T02:00:01.181Z,71.20
2022-12-04T02:02:40.622Z,71.30
2022-12-04T02:05:15.488Z,71.30
2022-12-04T02:07:45.636Z,71.20
2022-12-04T02:10:14.093Z,71.30
2022-12-04T02:12:53.124Z,71.20
2022-12-04T02:15:45.328Z,71.20
2022-12-04T02:18:34.238Z,71.20
2022-12-04T02:21:27.316Z,71.10
2022-12-04T02:24:19.487Z,71.00
2022-12-04T02:26:57.300Z,71.10
2022-12-04T02:29:55.273Z,71.10
2022-12-04T02:32:37.978Z,71.20
2022-12-04T02:35:33.609Z,71.30
2022-12-04T02:38:29.734Z,71.20
2022-12-04T02:41:17.324Z,71.20
2022-12-04T02:44:02.668Z,71.30
2022-12-04T02:46:39.424Z,71.40
2022-12-04T02:49:17.202Z,71.30
2022-12-04T02:51:47.496Z,71.40
2022-12-04T02:54:35.148Z,71.50
2022-12-04T02:57:05.524Z,71.50
2022-12-04T02:59:40.445Z,71.50
2022-12-04T03:02:15.336Z,71.40
2022-12-04T03:04:44.579Z,71.40
2022-12-04T03:07:20.989Z,71.40
2022-12-04T03:10:20.385Z,71.40
2022-12-04T03:12:53.261Z,71.60
2022-12-04T03:15:31.758Z,71.70
2022-12-04T03:18:10.567Z,71.70
2022-12-04T03:20:39.801Z,71.60
2022-12-04T03:23:28.878Z,71.80
2022-12-04T03:26:01.987Z,71.70
2022-12-04T03:28:40.911Z,71.60
2022-12-04T03:31:14.958Z,71.70
2022-12-04T03:33:46.906Z,71.70
2022-12-04T03:36:23.456Z,71.70
2022-12-04T03:38:57.920Z,71.60
2022-12-04T03:41:49.596Z,71.70
2022-12-04T03:45:00.085Z,71.60
2022-12-04T03:47:43.445Z,71.70
2022-12-04T03:50:35.067Z,71.70
2022-12-04T03:53:20.916Z,71.70
2022-12-04T03:55:57.818Z,71.70
2022-12-04T03:58:30.396Z,71.70
2022-12-04T04:01:00.188Z,71.60
2022-12-04T04:03:34.364Z,71.90
2022-12-04T04:06:25.733Z,71.90
2022-12-04T04:08:58.750Z,71.90
2022-12-04T04:11:36.603Z,71.90
2022-12-04T04:14:36.954Z,72.00
2022-12-04T04:17:31.288Z,71.90
2022-12-04T04:20:29.364Z,71.90
2022-12-04T04:23:17.907Z,72.00
2022-12-04T04:25:46.893Z,72.00
2022-12-04T04:28:34.284Z,72.10
2022-12-04T04:31:10.620Z,72.00
2022-12-04T04:33:49.681Z,72.10
2022-12-04T04:36:25.428Z,72.10
2022-12-04T04:39:14.677Z,72.20
2022-12-04T04:41:54.661Z,72.20
2022-12-04T04:44:29.272Z,72.10
2022-12-04T04:47:00.809Z,72.20
2022-12-04T04:49:32.837Z,72.30
2022-12-04T04:52:01.210Z,72.30
2022-12-04T04:54:30.246Z,72.30
2022-12-04T04:56:59.448Z,72.20
2022-12-04T04:59:26.930Z,72.20
2022-12-04T05:01:54.184Z,72.20
2022-12-04T05:04:21.298Z,72.10
2022-12-04T05:06:50.937Z,72.10
2022-12-04T05:09:20.632Z,72.20
2022-12-04T05:11:47.993Z,72.30
2022-12-04T05:14:15.325Z,72.20
2022-12-04T05:16:42.592Z,72.20
2022-12-04T05:19:29.588Z,72.30
2022-12-04T05:21:57.647Z,72.20
2022-12-04T05:24:25.131Z,72.20
2022-12-04T05:26:54.281Z,72.30
2022-12-04T05:29:22.386Z,72.20
2022-12-04T05:31:52.081Z,72.20
2022-12-04T05:34:19.579Z,72.40
2022-12-04T05:36:46.623Z,72.30
2022-12-04T05:39:14.778Z,72.40
2022-12-04T05:41:42.522Z,72.40
2022-12-04T05:44:12.227Z,72.30
2022-12-04T05:46:42.497Z,72.30
2022-12-04T05:49:12.674Z,72.30
2022-12-04T05:51:40.026Z,72.40
2022-12-04T05:54:10.585Z,72.40
2022-12-04T05:56:47.568Z,72.30
2022-12-04T05:59:17.996Z,72.30
2022-12-04T06:01:47.624Z,72.30
2022-12-04T06:04:14.842Z,72.30
2022-12-04T06:06:41.778Z,72.30
2022-12-04T06:09:11.913Z,72.40
2022-12-04T06:11:40.481Z,72.30
2022-12-04T06:14:10.237Z,72.30
2022-12-04T06:16:39.392Z,72.20
2022-12-04T06:19:09.288Z,72.20
2022-12-04T06:21:38.967Z,72.20
2022-12-04T06:24:06.672Z,72.40
2022-12-04T06:26:33.822Z,72.30
2022-12-04T06:29:01.242Z,72.30
2022-12-04T06:31:29.850Z,72.50
2022-12-04T06:33:57.905Z,72.50
2022-12-04T06:36:27.441Z,72.40
2022-12-04T06:38:56.774Z,72.40
2022-12-04T06:41:25.397Z,72.40
2022-12-04T06:43:52.429Z,72.50
2022-12-04T06:46:24.999Z,72.40
2022-12-04T06:48:53.763Z,72.40
2022-12-04T06:51:26.483Z,72.40
2022-12-04T06:53:53.785Z,72.30
2022-12-04T06:56:23.372Z,72.40
2022-12-04T06:58:52.944Z,72.40
2022-12-04T07:01:23.321Z,72.50
2022-12-04T07:03:52.783Z,72.50
2022-12-04T07:06:37.524Z,72.60
2022-12-04T07:09:10.669Z,72.50
2022-12-04T07:11:38.780Z,72.50
2022-12-04T07:14:05.716Z,72.40
2022-12-04T07:16:39.957Z,72.50
2022-12-04T07:19:12.458Z,72.50
2022-12-04T07:21:39.449Z,72.40
2022-12-04T07:24:06.581Z,72.50
2022-12-04T07:26:33.470Z,72.40
2022-12-04T07:29:00.747Z,72.50
2022-12-04T07:31:28.980Z,72.40
2022-12-04T07:33:56.843Z,72.50
2022-12-04T07:36:24.827Z,72.40
2022-12-04T07:38:52.113Z,72.50
2022-12-04T07:41:22.092Z,72.50
2022-12-04T07:43:49.243Z,72.40
2022-12-04T07:46:19.456Z,72.40
2022-12-04T07:48:49.134Z,72.40
2022-12-04T07:51:25.341Z,72.40
2022-12-04T07:53:53.472Z,72.50
2022-12-04T07:56:22.903Z,72.60
2022-12-04T07:58:50.470Z,72.40
2022-12-04T08:01:27.294Z,72.50
2022-12-04T08:03:57.079Z,72.60
2022-12-04T08:06:25.616Z,72.50
2022-12-04T08:08:53.286Z,72.60
2022-12-04T08:11:25.587Z,72.60
2022-12-04T08:14:00.799Z,72.60
2022-12-04T08:16:29.870Z,72.40
2022-12-04T08:18:57.468Z,72.50
2022-12-04T08:21:26.689Z,72.60
2022-12-04T08:23:55.149Z,72.60
2022-12-04T08:26:23.890Z,72.60
2022-12-04T08:28:53.623Z,72.60
2022-12-04T08:31:26.725Z,72.50
2022-12-04T08:33:55.406Z,72.60
2022-12-04T08:36:22.439Z,72.70
2022-12-04T08:38:49.784Z,72.60
2022-12-04T08:41:19.087Z,72.60
2022-12-04T08:43:46.355Z,72.60
2022-12-04T08:46:16.190Z,72.40
2022-12-04T08:48:46.859Z,72.40
2022-12-04T08:51:16.760Z,72.60
2022-12-04T08:53:43.786Z,72.50
2022-12-04T08:56:10.993Z,72.40
2022-12-04T08:58:38.492Z,72.40
2022-12-04T09:01:13.496Z,72.30
2022-12-04T09:03:41.415Z,72.30
2022-12-04T09:06:12.104Z,72.30
2022-12-04T09:08:39.242Z,72.30
2022-12-04T09:11:12.519Z,72.20
2022-12-04T09:13:40.888Z,72.20
2022-12-04T09:16:10.461Z,72.20
2022-12-04T09:18:38.677Z,72.10
2022-12-04T09:21:08.643Z,72.20
2022-12-04T09:23:36.740Z,72.10
2022-12-04T09:26:04.738Z,71.90
2022-12-04T09:28:31.588Z,72.10
2022-12-04T09:30:59.275Z,72.10
2022-12-04T09:33:26.510Z,72.10
2022-12-04T09:35:53.505Z,72.00
2022-12-04T09:38:20.820Z,72.00
2022-12-04T09:41:21.241Z,71.90
2022-12-04T09:43:59.212Z,72.00
2022-12-04T09:46:40.129Z,71.90
2022-12-04T09:49:25.499Z,71.90
2022-12-04T09:51:56.273Z,71.70
2022-12-04T09:54:29.738Z,71.50
2022-12-04T09:57:21.101Z,71.70
2022-12-04T09:59:51.127Z,71.90
2022-12-04T10:02:42.006Z,71.80
2022-12-04T10:05:18.306Z,71.70
2022-12-04T10:08:05.121Z,71.80
2022-12-04T10:10:41.404Z,71.70
2022-12-04T10:13:26.885Z,71.50
2022-12-04T10:16:16.051Z,71.50
2022-12-04T10:19:02.133Z,71.40
2022-12-04T10:21:54.814Z,71.30
2022-12-04T10:24:51.880Z,71.20
2022-12-04T10:27:39.750Z,71.40
2022-12-04T10:30:23.188Z,71.20
2022-12-04T10:33:16.388Z,71.30
2022-12-04T10:35:47.654Z,71.50
2022-12-04T10:38:42.629Z,71.60
2022-12-04T10:41:45.307Z,71.50
2022-12-04T10:44:17.738Z,71.60
2022-12-04T10:46:46.667Z,71.70
2022-12-04T10:49:20.222Z,71.60
2022-12-04T10:51:47.819Z,71.60
2022-12-04T10:54:30.296Z,71.70
2022-12-04T10:57:02.160Z,71.70
2022-12-04T10:59:29.942Z,71.80
2022-12-04T11:02:06.892Z,71.80
2022-12-04T11:04:35.454Z,71.60
2022-12-04T11:07:16.092Z,71.50
2022-12-04T11:09:43.008Z,71.70
2022-12-04T11:12:21.749Z,71.60
2022-12-04T11:14:58.949Z,71.50
2022-12-04T11:17:26.019Z,71.50
2022-12-04T11:20:17.323Z,71.80
2022-12-04T11:23:14.796Z,71.80
2022-12-04T11:25:48.124Z,71.70
2022-12-04T11:28:42.832Z,71.80
2022-12-04T11:31:10.753Z,71.70
2022-12-04T11:33:59.099Z,71.80
2022-12-04T11:36:34.193Z,71.70
2022-12-04T11:39:11.675Z,71.50
2022-12-04T11:41:38.988Z,71.50
2022-12-04T11:44:07.584Z,71.40
2022-12-04T11:46:35.247Z,71.50
2022-12-04T11:49:03.589Z,71.80
2022-12-04T11:51:30.456Z,71.80
2022-12-04T11:54:07.365Z,71.60
2022-12-04T11:56:38.897Z,71.70
2022-12-04T11:59:33.318Z,71.60
2022-12-04T12:02:03.141Z,71.20
2022-12-04T12:04:51.385Z,71.20
2022-12-04T12:07:18.191Z,71.20
2022-12-04T12:10:18.995Z,71.00
2022-12-04T12:12:51.723Z,71.20
2022-12-04T12:15:25.009Z,71.30
2022-12-04T12:18:09.738Z,71.30
2022-12-04T12:21:20.059Z,71.50
2022-12-04T12:24:20.707Z,71.60
2022-12-04T12:27:36.945Z,71.30
2022-12-04T12:30:15.854Z,71.40
2022-12-04T12:32:54.516Z,71.40
2022-12-04T12:35:31.259Z,71.10
2022-12-04T12:38:10.802Z,71.20
2022-12-04T12:40:47.399Z,71.00
2022-12-04T12:43:23.108Z,70.90
2022-12-04T12:46:00.403Z,70.90
2022-12-04T12:48:32.628Z,71.10
2022-12-04T12:51:29.138Z,71.00
2022-12-04T12:54:00.236Z,71.00
2022-12-04T12:56:46.119Z,71.10
2022-12-04T12:59:24.165Z,71.20
2022-12-04T13:02:01.456Z,71.10
2022-12-04T13:04:43.988Z,71.20
2022-12-04T13:07:16.649Z,71.00
2022-12-04T13:09:56.644Z,71.10
2022-12-04T13:12:24.643Z,71.10
2022-12-04T13:14:51.577Z,71.10
2022-12-04T13:17:26.335Z,71.10
2022-12-04T13:19:57.467Z,71.20
2022-12-04T13:23:02.315Z,71.00
2022-12-04T13:25:34.225Z,71.00
2022-12-04T13:28:12.842Z,70.80
2022-12-04T13:30:48.528Z,71.10
2022-12-04T13:33:54.843Z,71.20
2022-12-04T13:36:48.998Z,71.10
2022-12-04T13:39:45.794Z,71.10
2022-12-04T13:42:39.100Z,71.20
2022-12-04T13:45:25.200Z,71.20
2022-12-04T13:48:03.326Z,71.20
2022-12-04T13:50:36.089Z,71.10
2022-12-04T13:53:04.123Z,71.20
2022-12-04T13:55:39.396Z,71.10
2022-12-04T13:58:12.293Z,71.30
2022-12-04T14:00:42.710Z,71.30
2022-12-04T14:03:27.535Z,71.30
2022-12-04T14:05:55.023Z,71.50
2022-12-04T14:08:39.429Z,71.50
2022-12-04T14:11:20.144Z,71.60
2022-12-04T14:14:01.177Z,71.50
2022-12-04T14:16:41.232Z,71.50
2022-12-04T14:19:09.173Z,71.60
2022-12-04T14:21:41.380Z,71.60
2022-12-04T14:24:37.218Z,71.50
2022-12-04T14:27:34.657Z,71.60
2022-12-04T14:30:02.576Z,71.60
2022-12-04T14:32:33.756Z,71.70
2022-12-04T14:35:02.425Z,71.70
2022-12-04T14:37:35.478Z,71.80
2022-12-04T14:40:09.677Z,71.60
2022-12-04T14:42:40.843Z,71.60
2022-12-04T14:45:26.786Z,71.60
2022-12-04T14:48:13.681Z,71.70
2022-12-04T14:51:12.041Z,71.70
2022-12-04T14:54:07.130Z,71.60
2022-12-04T14:57:19.387Z,71.80
2022-12-04T14:59:52.629Z,71.80
2022-12-04T15:02:32.025Z,71.70
2022-12-04T15:05:00.139Z,71.80
2022-12-04T15:07:31.723Z,71.80
2022-12-04T15:10:19.769Z,71.70
2022-12-04T15:12:52.616Z,71.80
2022-12-04T15:15:25.761Z,71.80
2022-12-04T15:18:10.190Z,71.90
2022-12-04T15:20:58.972Z,71.80
2022-12-04T15:23:44.057Z,71.80
2022-12-04T15:26:12.909Z,71.80
2022-12-04T15:28:51.420Z,71.90
2022-12-04T15:31:27.329Z,71.80
2022-12-04T15:34:04.026Z,71.90
2022-12-04T15:36:59.470Z,72.00
2022-12-04T15:39:28.498Z,72.10
2022-12-04T15:42:21.570Z,72.10
2022-12-04T15:45:01.073Z,72.10
2022-12-04T15:47:31.191Z,72.10
2022-12-04T15:50:31.745Z,72.10
2022-12-04T15:53:19.732Z,72.20
2022-12-04T15:55:53.111Z,72.30
2022-12-04T15:58:32.210Z,72.30
2022-12-04T16:01:05.189Z,72.30
2022-12-04T16:03:37.582Z,72.40
2022-12-04T16:06:28.947Z,72.50
2022-12-04T16:09:24.209Z,72.40
2022-12-04T16:12:19.405Z,72.40
2022-12-04T16:14:46.259Z,72.50
2022-12-04T16:17:14.124Z,72.60
2022-12-04T16:19:42.400Z,72.70
2022-12-04T16:22:23.713Z,72.80
2022-12-04T16:24:51.308Z,72.80
2022-12-04T16:27:22.550Z,72.80
2022-12-04T16:29:54.031Z,72.90
2022-12-04T16:32:36.017Z,72.90
2022-12-04T16:35:05.559Z,72.90
2022-12-04T16:37:32.624Z,73.00
2022-12-04T16:39:59.563Z,72.90
2022-12-04T16:42:29.708Z,72.90
2022-12-04T16:44:57.963Z,72.90
2022-12-04T16:47:24.913Z,72.90
2022-12-04T16:49:52.541Z,72.90
2022-12-04T16:52:20.311Z,72.90
2022-12-04T16:54:47.506Z,72.90
2022-12-04T16:57:14.503Z,73.00
2022-12-04T16:59:41.551Z,73.00
2022-12-04T17:02:17.164Z,73.00
2022-12-04T17:04:44.424Z,73.00
2022-12-04T17:07:14.797Z,73.10
2022-12-04T17:09:44.212Z,73.10
2022-12-04T17:12:11.211Z,73.10
2022-12-04T17:14:39.067Z,73.20
2022-12-04T17:17:06.177Z,73.20
2022-12-04T17:19:34.877Z,73.20
2022-12-04T17:22:01.959Z,73.20
2022-12-04T17:24:28.918Z,73.20
2022-12-04T17:26:55.771Z,73.10
2022-12-04T17:29:22.651Z,73.10
2022-12-04T17:31:49.671Z,73.10
2022-12-04T17:34:16.835Z,73.30
2022-12-04T17:36:43.779Z,73.20
2022-12-04T17:39:11.941Z,73.30
2022-12-04T17:41:39.880Z,73.40
2022-12-04T17:44:06.692Z,73.40
2022-12-04T17:46:33.662Z,73.30
2022-12-04T17:49:06.602Z,73.30
2022-12-04T17:51:37.833Z,73.40
2022-12-04T17:54:05.804Z,73.40
2022-12-04T17:56:36.068Z,73.40
2022-12-04T17:59:03.761Z,73.40
2022-12-04T18:01:31.861Z,73.50
2022-12-04T18:04:03.321Z,73.50
2022-12-04T18:06:36.643Z,73.50
2022-12-04T18:09:05.979Z,73.50
2022-12-04T18:11:35.156Z,73.50
2022-12-04T18:16:53.137Z,73.50
2022-12-04T18:19:22.658Z,73.50
2022-12-04T18:21:50.843Z,73.60
2022-12-04T18:24:17.917Z,73.70
2022-12-04T18:26:48.195Z,73.60
2022-12-04T18:29:18.850Z,73.70
2022-12-04T18:31:48.936Z,73.70
2022-12-04T18:34:16.422Z,73.80
2022-12-04T18:36:45.431Z,73.70
2022-12-04T18:39:18.472Z,73.80
2022-12-04T18:41:46.009Z,73.70
2022-12-04T18:44:13.034Z,73.70
2022-12-04T18:46:40.314Z,73.70
2022-12-04T18:49:09.305Z,73.60
2022-12-04T18:54:26.726Z,73.70
2022-12-04T18:56:53.832Z,73.80
2022-12-04T18:59:26.716Z,73.70
2022-12-04T19:01:54.644Z,73.70
2022-12-04T19:04:23.532Z,73.80
2022-12-04T19:06:53.979Z,73.80
2022-12-04T19:12:14.511Z,73.80
2022-12-04T19:14:41.573Z,73.70
2022-12-04T19:17:09.120Z,73.70
2022-12-04T19:19:36.699Z,73.70
2022-12-04T19:22:04.258Z,73.70
2022-12-04T19:24:31.315Z,73.80
2022-12-04T19:26:58.226Z,73.60
2022-12-04T19:29:25.168Z,73.60
2022-12-04T19:31:57.633Z,73.60
2022-12-04T19:34:27.400Z,73.60
2022-12-04T19:36:54.973Z,73.60
2022-12-04T19:39:27.376Z,73.70
2022-12-04T19:41:54.560Z,73.70
2022-12-04T19:47:10.575Z,73.80
2022-12-04T19:49:38.185Z,73.80
2022-12-04T19:52:05.523Z,73.90
2022-12-04T19:54:32.652Z,73.80
2022-12-04T19:56:59.779Z,73.90
2022-12-04T19:59:35.983Z,73.90
2022-12-04T20:02:05.231Z,73.90
2022-12-04T20:04:32.275Z,74.00
2022-12-04T20:06:59.196Z,74.10
2022-12-04T20:09:27.524Z,74.20
2022-12-04T20:11:54.571Z,74.30
2022-12-04T20:14:21.543Z,74.20
2022-12-04T20:16:48.820Z,74.30
2022-12-04T20:19:17.626Z,74.30
2022-12-04T20:21:46.123Z,74.40
2022-12-04T20:24:15.714Z,74.50
2022-12-04T20:26:44.431Z,74.60
2022-12-04T20:29:14.049Z,74.70
2022-12-04T20:31:44.553Z,74.70
2022-12-04T20:34:18.260Z,74.80
2022-12-04T20:36:51.969Z,75.00
2022-12-04T20:39:20.301Z,75.10
2022-12-04T20:41:47.241Z,75.20
2022-12-04T20:44:16.399Z,75.30
2022-12-04T20:46:46.191Z,75.30
2022-12-04T20:49:22.547Z,75.20
2022-12-04T20:51:56.014Z,75.20
2022-12-04T20:54:23.396Z,75.30
2022-12-04T20:56:54.748Z,75.30
2022-12-04T20:59:23.109Z,75.30
2022-12-04T21:01:51.899Z,75.50
2022-12-04T21:04:19.786Z,75.60
2022-12-04T21:06:47.064Z,75.70
2022-12-04T21:09:33.619Z,75.80
2022-12-04T21:12:02.157Z,75.80
2022-12-04T21:14:50.820Z,75.80
2022-12-04T21:17:24.074Z,75.70
2022-12-04T21:20:01.478Z,75.80
2022-12-04T21:22:38.437Z,75.90
2022-12-04T21:25:09.982Z,76.00
2022-12-04T21:27:38.071Z,76.00
2022-12-04T21:30:06.530Z,75.90
2022-12-04T21:32:36.889Z,75.90
2022-12-04T21:35:14.078Z,75.80
2022-12-04T21:37:41.924Z,75.80
2022-12-04T21:40:14.678Z,75.90
2022-12-04T21:42:44.996Z,75.90
2022-12-04T21:45:14.836Z,75.90
2022-12-04T21:47:42.929Z,76.00
2022-12-04T21:50:17.315Z,75.90
2022-12-04T21:53:14.294Z,76.00
2022-12-04T21:55:57.373Z,76.00
2022-12-04T21:58:29.263Z,76.00
2022-12-04T22:01:03.599Z,76.10
2022-12-04T22:03:31.687Z,76.10
2022-12-04T22:06:01.224Z,76.10
2022-12-04T22:08:30.102Z,76.10
2022-12-04T22:11:01.984Z,76.00
2022-12-04T22:13:29.816Z,76.10
2022-12-04T22:15:57.246Z,76.00
2022-12-04T22:18:24.583Z,76.00
2022-12-04T22:20:52.443Z,76.00
2022-12-04T22:23:20.016Z,76.00
2022-12-04T22:25:47.759Z,76.10
2022-12-04T22:28:15.740Z,76.10
2022-12-04T22:30:43.160Z,76.10
2022-12-04T22:33:11.784Z,76.10
2022-12-04T22:35:40.141Z,76.10
2022-12-04T22:38:10.345Z,76.00
2022-12-04T22:40:42.003Z,76.10
2022-12-04T22:43:12.493Z,76.10
2022-12-04T22:45:43.015Z,76.10
2022-12-04T22:48:14.791Z,76.10
2022-12-04T22:50:42.888Z,76.10
2022-12-04T22:53:18.470Z,76.20
2022-12-04T22:55:46.216Z,76.10
2022-12-04T22:58:21.240Z,76.30
2022-12-04T23:00:49.797Z,76.30
2022-12-04T23:03:20.052Z,76.30
2022-12-04T23:05:49.973Z,76.20
2022-12-04T23:08:21.555Z,76.30
2022-12-04T23:10:52.036Z,76.20
2022-12-04T23:13:27.118Z,76.30
2022-12-04T23:15:57.655Z,76.20
2022-12-04T23:18:28.142Z,76.30
2022-12-04T23:21:07.661Z,76.20
2022-12-04T23:23:38.073Z,76.30
2022-12-04T23:26:20.300Z,76.30
2022-12-04T23:28:48.909Z,76.30
2022-12-04T23:31:18.646Z,76.30
2022-12-04T23:33:48.495Z,76.30
2022-12-04T23:36:18.793Z,76.30
2022-12-04T23:38:48.586Z,76.30
2022-12-04T23:41:22.713Z,76.40
2022-12-04T23:43:51.345Z,76.30
2022-12-04T23:46:22.207Z,76.40
2022-12-04T23:48:52.632Z,76.40
2022-12-04T23:51:20.538Z,76.40
2022-12-04T23:53:50.009Z,76.50
2022-12-04T23:56:23.744Z,76.60
2022-12-04T23:58:52.993Z,76.60
